sensor_id;sensor_type;location;lat;lon;timestamp;P1;durP1;ratioP1;P2;durP2;ratioP2
75289;SDS011;63883;48.996;20.804;2023-08-20T00:00:20;19.38;;;11.20;;
75289;SDS011;63883;48.996;20.804;2023-08-20T00:03:12;16.05;;;11.13;;
75289;SDS011;63883;48.996;20.804;2023-08-20T00:05:39;17.13;;;11.70;;
75289;SDS011;63883;48.996;20.804;2023-08-20T00:08:05;14.85;;;11.18;;
75289;SDS011;63883;48.996;20.804;2023-08-20T00:10:31;14.82;;;10.38;;
75289;SDS011;63883;48.996;20.804;2023-08-20T00:12:57;15.45;;;10.75;;
75289;SDS011;63883;48.996;20.804;2023-08-20T00:15:23;14.02;;;10.25;;
75289;SDS011;63883;48.996;20.804;2023-08-20T00:17:52;13.82;;;10.82;;
75289;SDS011;63883;48.996;20.804;2023-08-20T00:20:19;15.48;;;10.40;;
75289;SDS011;63883;48.996;20.804;2023-08-20T00:22:45;16.67;;;10.80;;
75289;SDS011;63883;48.996;20.804;2023-08-20T00:25:12;16.48;;;11.70;;
75289;SDS011;63883;48.996;20.804;2023-08-20T00:27:39;15.80;;;11.18;;
75289;SDS011;63883;48.996;20.804;2023-08-20T00:30:05;14.68;;;10.55;;
75289;SDS011;63883;48.996;20.804;2023-08-20T00:32:32;15.77;;;10.48;;
75289;SDS011;63883;48.996;20.804;2023-08-20T00:34:58;15.88;;;10.73;;
75289;SDS011;63883;48.996;20.804;2023-08-20T00:37:25;16.80;;;10.88;;
75289;SDS011;63883;48.996;20.804;2023-08-20T00:39:51;15.43;;;10.95;;
75289;SDS011;63883;48.996;20.804;2023-08-20T00:42:16;14.65;;;10.75;;
75289;SDS011;63883;48.996;20.804;2023-08-20T00:44:42;16.63;;;10.77;;
75289;SDS011;63883;48.996;20.804;2023-08-20T00:47:11;18.13;;;10.95;;
75289;SDS011;63883;48.996;20.804;2023-08-20T00:49:39;16.95;;;11.13;;
75289;SDS011;63883;48.996;20.804;2023-08-20T00:52:06;19.98;;;11.75;;
75289;SDS011;63883;48.996;20.804;2023-08-20T00:54:34;15.52;;;11.52;;
75289;SDS011;63883;48.996;20.804;2023-08-20T00:57:01;14.90;;;10.18;;
75289;SDS011;63883;48.996;20.804;2023-08-20T00:59:28;15.13;;;11.27;;
75289;SDS011;63883;48.996;20.804;2023-08-20T01:01:57;16.42;;;10.98;;
75289;SDS011;63883;48.996;20.804;2023-08-20T01:04:23;24.42;;;11.18;;
75289;SDS011;63883;48.996;20.804;2023-08-20T01:07:04;14.23;;;11.07;;
75289;SDS011;63883;48.996;20.804;2023-08-20T01:09:50;15.77;;;11.00;;
75289;SDS011;63883;48.996;20.804;2023-08-20T01:12:26;15.68;;;10.73;;
75289;SDS011;63883;48.996;20.804;2023-08-20T01:14:54;15.38;;;11.38;;
75289;SDS011;63883;48.996;20.804;2023-08-20T01:17:19;18.15;;;11.20;;
75289;SDS011;63883;48.996;20.804;2023-08-20T01:19:45;14.82;;;10.30;;
75289;SDS011;63883;48.996;20.804;2023-08-20T01:30:42;16.20;;;11.73;;
75289;SDS011;63883;48.996;20.804;2023-08-20T01:33:09;17.77;;;11.98;;
75289;SDS011;63883;48.996;20.804;2023-08-20T01:35:38;18.08;;;11.93;;
75289;SDS011;63883;48.996;20.804;2023-08-20T01:38:03;17.90;;;12.07;;
75289;SDS011;63883;48.996;20.804;2023-08-20T01:40:30;19.20;;;11.98;;
75289;SDS011;63883;48.996;20.804;2023-08-20T01:42:56;17.92;;;11.68;;
75289;SDS011;63883;48.996;20.804;2023-08-20T01:45:22;17.70;;;12.05;;
75289;SDS011;63883;48.996;20.804;2023-08-20T01:47:48;18.65;;;12.43;;
75289;SDS011;63883;48.996;20.804;2023-08-20T01:50:14;17.55;;;11.95;;
75289;SDS011;63883;48.996;20.804;2023-08-20T01:52:40;15.90;;;11.48;;
75289;SDS011;63883;48.996;20.804;2023-08-20T01:55:05;16.55;;;11.57;;
75289;SDS011;63883;48.996;20.804;2023-08-20T01:57:31;15.80;;;11.32;;
75289;SDS011;63883;48.996;20.804;2023-08-20T01:59:57;17.08;;;11.30;;
75289;SDS011;63883;48.996;20.804;2023-08-20T02:02:23;14.35;;;10.43;;
75289;SDS011;63883;48.996;20.804;2023-08-20T02:04:49;14.80;;;10.18;;
75289;SDS011;63883;48.996;20.804;2023-08-20T02:07:15;17.05;;;11.13;;
75289;SDS011;63883;48.996;20.804;2023-08-20T02:09:41;17.85;;;11.80;;
75289;SDS011;63883;48.996;20.804;2023-08-20T02:12:07;18.55;;;11.52;;
75289;SDS011;63883;48.996;20.804;2023-08-20T02:14:33;16.27;;;11.75;;
75289;SDS011;63883;48.996;20.804;2023-08-20T02:17:00;16.10;;;11.10;;
75289;SDS011;63883;48.996;20.804;2023-08-20T02:19:27;18.35;;;12.32;;
75289;SDS011;63883;48.996;20.804;2023-08-20T02:21:53;16.23;;;11.38;;
75289;SDS011;63883;48.996;20.804;2023-08-20T02:24:18;16.10;;;11.07;;
75289;SDS011;63883;48.996;20.804;2023-08-20T02:26:44;16.85;;;11.05;;
75289;SDS011;63883;48.996;20.804;2023-08-20T02:29:10;14.90;;;10.45;;
75289;SDS011;63883;48.996;20.804;2023-08-20T02:31:36;14.77;;;11.38;;
75289;SDS011;63883;48.996;20.804;2023-08-20T02:34:01;17.40;;;11.27;;
75289;SDS011;63883;48.996;20.804;2023-08-20T02:36:27;18.75;;;12.10;;
75289;SDS011;63883;48.996;20.804;2023-08-20T02:38:53;17.73;;;12.77;;
75289;SDS011;63883;48.996;20.804;2023-08-20T02:41:18;17.80;;;11.68;;
75289;SDS011;63883;48.996;20.804;2023-08-20T02:43:44;17.88;;;11.63;;
75289;SDS011;63883;48.996;20.804;2023-08-20T02:46:10;18.42;;;11.95;;
75289;SDS011;63883;48.996;20.804;2023-08-20T02:48:36;16.88;;;11.13;;
75289;SDS011;63883;48.996;20.804;2023-08-20T02:51:02;18.35;;;11.45;;
75289;SDS011;63883;48.996;20.804;2023-08-20T02:53:28;17.23;;;11.25;;
75289;SDS011;63883;48.996;20.804;2023-08-20T02:55:54;14.35;;;10.90;;
75289;SDS011;63883;48.996;20.804;2023-08-20T02:58:20;17.02;;;11.07;;
75289;SDS011;63883;48.996;20.804;2023-08-20T03:00:45;16.58;;;11.48;;
75289;SDS011;63883;48.996;20.804;2023-08-20T03:03:11;17.83;;;11.85;;
75289;SDS011;63883;48.996;20.804;2023-08-20T03:05:37;16.13;;;11.05;;
75289;SDS011;63883;48.996;20.804;2023-08-20T03:08:03;18.85;;;11.10;;
75289;SDS011;63883;48.996;20.804;2023-08-20T03:10:30;17.08;;;11.13;;
75289;SDS011;63883;48.996;20.804;2023-08-20T03:12:58;16.88;;;10.90;;
75289;SDS011;63883;48.996;20.804;2023-08-20T03:15:24;18.60;;;11.32;;
75289;SDS011;63883;48.996;20.804;2023-08-20T03:17:50;18.50;;;10.98;;
75289;SDS011;63883;48.996;20.804;2023-08-20T03:20:15;15.25;;;11.68;;
75289;SDS011;63883;48.996;20.804;2023-08-20T03:22:41;15.95;;;11.25;;
75289;SDS011;63883;48.996;20.804;2023-08-20T03:25:07;16.48;;;11.48;;
75289;SDS011;63883;48.996;20.804;2023-08-20T03:27:33;18.40;;;11.07;;
75289;SDS011;63883;48.996;20.804;2023-08-20T03:29:59;17.58;;;11.57;;
75289;SDS011;63883;48.996;20.804;2023-08-20T03:32:25;18.17;;;10.68;;
75289;SDS011;63883;48.996;20.804;2023-08-20T03:34:50;13.50;;;9.38;;
75289;SDS011;63883;48.996;20.804;2023-08-20T03:39:44;17.63;;;10.07;;
75289;SDS011;63883;48.996;20.804;2023-08-20T03:42:10;17.58;;;11.05;;
75289;SDS011;63883;48.996;20.804;2023-08-20T03:44:35;13.48;;;10.30;;
75289;SDS011;63883;48.996;20.804;2023-08-20T03:47:01;15.55;;;9.82;;
75289;SDS011;63883;48.996;20.804;2023-08-20T03:49:26;18.40;;;11.15;;
75289;SDS011;63883;48.996;20.804;2023-08-20T03:51:52;15.10;;;10.63;;
75289;SDS011;63883;48.996;20.804;2023-08-20T03:54:18;13.57;;;10.15;;
75289;SDS011;63883;48.996;20.804;2023-08-20T03:56:44;17.90;;;10.68;;
75289;SDS011;63883;48.996;20.804;2023-08-20T03:59:09;17.58;;;11.55;;
75289;SDS011;63883;48.996;20.804;2023-08-20T04:01:35;17.17;;;10.75;;
75289;SDS011;63883;48.996;20.804;2023-08-20T04:04:02;15.00;;;10.77;;
75289;SDS011;63883;48.996;20.804;2023-08-20T04:06:29;16.27;;;10.82;;
75289;SDS011;63883;48.996;20.804;2023-08-20T04:08:55;16.67;;;11.18;;
75289;SDS011;63883;48.996;20.804;2023-08-20T04:11:20;17.85;;;11.80;;
75289;SDS011;63883;48.996;20.804;2023-08-20T04:13:46;15.50;;;11.25;;
75289;SDS011;63883;48.996;20.804;2023-08-20T04:16:12;18.88;;;11.00;;
75289;SDS011;63883;48.996;20.804;2023-08-20T04:18:39;17.55;;;11.85;;
75289;SDS011;63883;48.996;20.804;2023-08-20T04:21:05;18.65;;;12.43;;
75289;SDS011;63883;48.996;20.804;2023-08-20T04:23:30;21.13;;;12.05;;
75289;SDS011;63883;48.996;20.804;2023-08-20T04:25:56;18.38;;;11.82;;
75289;SDS011;63883;48.996;20.804;2023-08-20T04:28:22;18.60;;;11.80;;
75289;SDS011;63883;48.996;20.804;2023-08-20T04:30:48;21.08;;;13.00;;
75289;SDS011;63883;48.996;20.804;2023-08-20T04:33:14;26.85;;;13.10;;
75289;SDS011;63883;48.996;20.804;2023-08-20T04:35:40;24.70;;;13.82;;
75289;SDS011;63883;48.996;20.804;2023-08-20T04:38:05;22.95;;;13.75;;
75289;SDS011;63883;48.996;20.804;2023-08-20T04:40:31;23.88;;;14.00;;
75289;SDS011;63883;48.996;20.804;2023-08-20T04:42:57;31.15;;;14.90;;
75289;SDS011;63883;48.996;20.804;2023-08-20T04:45:22;22.88;;;12.98;;
75289;SDS011;63883;48.996;20.804;2023-08-20T04:47:48;25.75;;;13.82;;
75289;SDS011;63883;48.996;20.804;2023-08-20T04:50:14;29.48;;;14.20;;
75289;SDS011;63883;48.996;20.804;2023-08-20T04:52:39;47.75;;;16.73;;
75289;SDS011;63883;48.996;20.804;2023-08-20T04:55:05;36.28;;;14.85;;
75289;SDS011;63883;48.996;20.804;2023-08-20T04:57:32;45.33;;;15.68;;
75289;SDS011;63883;48.996;20.804;2023-08-20T04:59:58;38.67;;;14.95;;
75289;SDS011;63883;48.996;20.804;2023-08-20T05:02:24;38.88;;;16.25;;
75289;SDS011;63883;48.996;20.804;2023-08-20T05:04:51;29.15;;;15.00;;
75289;SDS011;63883;48.996;20.804;2023-08-20T05:07:16;26.92;;;13.93;;
75289;SDS011;63883;48.996;20.804;2023-08-20T05:09:42;26.73;;;14.10;;
75289;SDS011;63883;48.996;20.804;2023-08-20T05:12:08;24.70;;;14.18;;
75289;SDS011;63883;48.996;20.804;2023-08-20T05:14:34;26.50;;;14.80;;
75289;SDS011;63883;48.996;20.804;2023-08-20T05:16:59;24.55;;;14.77;;
75289;SDS011;63883;48.996;20.804;2023-08-20T05:19:25;27.83;;;13.60;;
75289;SDS011;63883;48.996;20.804;2023-08-20T05:21:52;23.23;;;14.73;;
75289;SDS011;63883;48.996;20.804;2023-08-20T05:24:21;23.38;;;14.48;;
75289;SDS011;63883;48.996;20.804;2023-08-20T05:26:49;26.23;;;14.40;;
75289;SDS011;63883;48.996;20.804;2023-08-20T05:29:36;21.50;;;13.73;;
75289;SDS011;63883;48.996;20.804;2023-08-20T05:32:02;20.75;;;13.38;;
75289;SDS011;63883;48.996;20.804;2023-08-20T05:34:28;20.38;;;13.77;;
75289;SDS011;63883;48.996;20.804;2023-08-20T05:36:54;19.92;;;13.10;;
75289;SDS011;63883;48.996;20.804;2023-08-20T05:39:20;19.05;;;13.07;;
75289;SDS011;63883;48.996;20.804;2023-08-20T05:41:45;19.75;;;13.90;;
75289;SDS011;63883;48.996;20.804;2023-08-20T05:44:11;19.08;;;13.60;;
75289;SDS011;63883;48.996;20.804;2023-08-20T05:46:36;20.13;;;13.25;;
75289;SDS011;63883;48.996;20.804;2023-08-20T05:49:02;16.67;;;12.77;;
75289;SDS011;63883;48.996;20.804;2023-08-20T05:51:28;15.80;;;12.65;;
75289;SDS011;63883;48.996;20.804;2023-08-20T05:53:54;17.30;;;12.98;;
75289;SDS011;63883;48.996;20.804;2023-08-20T05:56:19;16.92;;;12.77;;
75289;SDS011;63883;48.996;20.804;2023-08-20T05:58:45;18.30;;;12.98;;
75289;SDS011;63883;48.996;20.804;2023-08-20T06:01:11;17.60;;;12.65;;
75289;SDS011;63883;48.996;20.804;2023-08-20T06:03:36;13.98;;;11.95;;
75289;SDS011;63883;48.996;20.804;2023-08-20T06:06:02;15.18;;;11.73;;
75289;SDS011;63883;48.996;20.804;2023-08-20T06:08:28;15.27;;;12.15;;
75289;SDS011;63883;48.996;20.804;2023-08-20T06:10:54;15.43;;;12.45;;
75289;SDS011;63883;48.996;20.804;2023-08-20T06:13:19;14.77;;;12.60;;
75289;SDS011;63883;48.996;20.804;2023-08-20T06:15:45;14.88;;;12.05;;
75289;SDS011;63883;48.996;20.804;2023-08-20T06:18:11;15.57;;;11.70;;
75289;SDS011;63883;48.996;20.804;2023-08-20T06:20:36;16.20;;;11.43;;
75289;SDS011;63883;48.996;20.804;2023-08-20T06:23:02;14.52;;;11.48;;
75289;SDS011;63883;48.996;20.804;2023-08-20T06:25:28;14.43;;;12.13;;
75289;SDS011;63883;48.996;20.804;2023-08-20T06:27:54;12.80;;;10.85;;
75289;SDS011;63883;48.996;20.804;2023-08-20T06:30:19;12.63;;;11.00;;
75289;SDS011;63883;48.996;20.804;2023-08-20T06:32:45;14.02;;;11.63;;
75289;SDS011;63883;48.996;20.804;2023-08-20T06:35:11;12.15;;;10.82;;
75289;SDS011;63883;48.996;20.804;2023-08-20T06:37:38;11.60;;;10.40;;
75289;SDS011;63883;48.996;20.804;2023-08-20T06:40:05;11.70;;;10.48;;
75289;SDS011;63883;48.996;20.804;2023-08-20T06:42:31;14.15;;;10.95;;
75289;SDS011;63883;48.996;20.804;2023-08-20T06:44:57;14.10;;;11.18;;
75289;SDS011;63883;48.996;20.804;2023-08-20T06:47:23;12.70;;;10.75;;
75289;SDS011;63883;48.996;20.804;2023-08-20T06:49:49;12.93;;;10.27;;
75289;SDS011;63883;48.996;20.804;2023-08-20T06:52:15;11.80;;;10.50;;
75289;SDS011;63883;48.996;20.804;2023-08-20T06:54:41;12.20;;;10.90;;
75289;SDS011;63883;48.996;20.804;2023-08-20T06:57:07;13.05;;;10.13;;
75289;SDS011;63883;48.996;20.804;2023-08-20T06:59:32;14.38;;;11.18;;
75289;SDS011;63883;48.996;20.804;2023-08-20T07:01:58;14.73;;;10.38;;
75289;SDS011;63883;48.996;20.804;2023-08-20T07:04:24;12.40;;;10.48;;
75289;SDS011;63883;48.996;20.804;2023-08-20T07:06:50;12.68;;;10.55;;
75289;SDS011;63883;48.996;20.804;2023-08-20T07:09:16;14.63;;;10.25;;
75289;SDS011;63883;48.996;20.804;2023-08-20T07:11:42;12.30;;;11.05;;
75289;SDS011;63883;48.996;20.804;2023-08-20T07:14:07;12.48;;;9.50;;
75289;SDS011;63883;48.996;20.804;2023-08-20T07:16:33;11.65;;;10.15;;
75289;SDS011;63883;48.996;20.804;2023-08-20T07:18:59;13.23;;;11.00;;
75289;SDS011;63883;48.996;20.804;2023-08-20T07:21:24;11.60;;;9.95;;
75289;SDS011;63883;48.996;20.804;2023-08-20T07:23:50;11.80;;;9.68;;
75289;SDS011;63883;48.996;20.804;2023-08-20T07:26:16;12.88;;;10.05;;
75289;SDS011;63883;48.996;20.804;2023-08-20T07:28:41;11.57;;;10.10;;
75289;SDS011;63883;48.996;20.804;2023-08-20T07:31:23;12.30;;;10.15;;
75289;SDS011;63883;48.996;20.804;2023-08-20T07:33:56;11.23;;;9.75;;
75289;SDS011;63883;48.996;20.804;2023-08-20T07:36:23;11.35;;;9.77;;
75289;SDS011;63883;48.996;20.804;2023-08-20T07:41:16;10.82;;;9.25;;
75289;SDS011;63883;48.996;20.804;2023-08-20T07:43:43;11.00;;;9.90;;
75289;SDS011;63883;48.996;20.804;2023-08-20T07:46:09;10.05;;;9.05;;
75289;SDS011;63883;48.996;20.804;2023-08-20T07:48:35;10.68;;;9.57;;
75289;SDS011;63883;48.996;20.804;2023-08-20T07:51:01;10.43;;;9.30;;
75289;SDS011;63883;48.996;20.804;2023-08-20T07:53:28;10.75;;;9.63;;
75289;SDS011;63883;48.996;20.804;2023-08-20T07:55:54;10.00;;;9.05;;
75289;SDS011;63883;48.996;20.804;2023-08-20T07:58:20;11.27;;;9.57;;
75289;SDS011;63883;48.996;20.804;2023-08-20T08:00:46;10.38;;;9.30;;
75289;SDS011;63883;48.996;20.804;2023-08-20T08:03:12;10.38;;;9.27;;
75289;SDS011;63883;48.996;20.804;2023-08-20T08:05:40;10.52;;;8.93;;
75289;SDS011;63883;48.996;20.804;2023-08-20T08:08:06;10.25;;;8.85;;
75289;SDS011;63883;48.996;20.804;2023-08-20T08:10:32;10.38;;;9.38;;
75289;SDS011;63883;48.996;20.804;2023-08-20T08:12:57;10.10;;;9.00;;
75289;SDS011;63883;48.996;20.804;2023-08-20T08:15:23;10.82;;;9.05;;
75289;SDS011;63883;48.996;20.804;2023-08-20T08:17:49;10.05;;;9.13;;
75289;SDS011;63883;48.996;20.804;2023-08-20T08:20:15;10.32;;;9.23;;
75289;SDS011;63883;48.996;20.804;2023-08-20T08:22:40;11.02;;;9.20;;
75289;SDS011;63883;48.996;20.804;2023-08-20T08:25:06;10.27;;;9.18;;
75289;SDS011;63883;48.996;20.804;2023-08-20T08:27:32;10.63;;;9.30;;
75289;SDS011;63883;48.996;20.804;2023-08-20T08:29:57;10.27;;;9.23;;
75289;SDS011;63883;48.996;20.804;2023-08-20T08:32:23;10.93;;;9.35;;
75289;SDS011;63883;48.996;20.804;2023-08-20T08:34:50;10.25;;;8.88;;
75289;SDS011;63883;48.996;20.804;2023-08-20T08:37:15;10.35;;;8.88;;
75289;SDS011;63883;48.996;20.804;2023-08-20T08:39:41;9.98;;;9.00;;
75289;SDS011;63883;48.996;20.804;2023-08-20T08:42:07;10.35;;;9.27;;
75289;SDS011;63883;48.996;20.804;2023-08-20T08:44:36;10.02;;;9.02;;
75289;SDS011;63883;48.996;20.804;2023-08-20T08:47:02;10.55;;;9.55;;
75289;SDS011;63883;48.996;20.804;2023-08-20T08:49:28;10.50;;;9.48;;
75289;SDS011;63883;48.996;20.804;2023-08-20T08:51:58;9.80;;;8.80;;
75289;SDS011;63883;48.996;20.804;2023-08-20T08:54:24;10.65;;;9.55;;
75289;SDS011;63883;48.996;20.804;2023-08-20T08:56:50;10.90;;;9.75;;
75289;SDS011;63883;48.996;20.804;2023-08-20T08:59:16;10.38;;;9.27;;
75289;SDS011;63883;48.996;20.804;2023-08-20T09:01:41;9.82;;;8.82;;
75289;SDS011;63883;48.996;20.804;2023-08-20T09:04:07;9.82;;;8.93;;
75289;SDS011;63883;48.996;20.804;2023-08-20T09:06:45;11.35;;;9.38;;
75289;SDS011;63883;48.996;20.804;2023-08-20T09:09:12;10.25;;;9.25;;
75289;SDS011;63883;48.996;20.804;2023-08-20T09:11:38;10.23;;;9.13;;
75289;SDS011;63883;48.996;20.804;2023-08-20T09:14:04;10.57;;;9.52;;
75289;SDS011;63883;48.996;20.804;2023-08-20T09:16:30;10.30;;;9.30;;
75289;SDS011;63883;48.996;20.804;2023-08-20T09:18:58;10.55;;;9.40;;
75289;SDS011;63883;48.996;20.804;2023-08-20T09:21:28;9.75;;;8.85;;
75289;SDS011;63883;48.996;20.804;2023-08-20T09:23:55;10.10;;;9.10;;
75289;SDS011;63883;48.996;20.804;2023-08-20T09:28:48;10.40;;;9.30;;
75289;SDS011;63883;48.996;20.804;2023-08-20T09:31:14;9.68;;;8.73;;
75289;SDS011;63883;48.996;20.804;2023-08-20T09:33:53;10.15;;;9.20;;
75289;SDS011;63883;48.996;20.804;2023-08-20T09:36:28;11.65;;;9.35;;
75289;SDS011;63883;48.996;20.804;2023-08-20T09:38:56;8.95;;;8.07;;
75289;SDS011;63883;48.996;20.804;2023-08-20T09:41:22;10.05;;;9.15;;
75289;SDS011;63883;48.996;20.804;2023-08-20T09:43:49;9.82;;;8.82;;
75289;SDS011;63883;48.996;20.804;2023-08-20T09:46:26;9.52;;;8.32;;
75289;SDS011;63883;48.996;20.804;2023-08-20T09:48:56;9.88;;;9.05;;
75289;SDS011;63883;48.996;20.804;2023-08-20T09:51:26;9.68;;;8.77;;
75289;SDS011;63883;48.996;20.804;2023-08-20T09:56:24;10.90;;;9.68;;
75289;SDS011;63883;48.996;20.804;2023-08-20T09:58:57;10.07;;;9.15;;
75289;SDS011;63883;48.996;20.804;2023-08-20T10:01:23;10.75;;;9.75;;
75289;SDS011;63883;48.996;20.804;2023-08-20T10:06:15;9.48;;;8.65;;
75289;SDS011;63883;48.996;20.804;2023-08-20T10:11:11;10.13;;;9.23;;
75289;SDS011;63883;48.996;20.804;2023-08-20T10:13:36;10.45;;;9.38;;
75289;SDS011;63883;48.996;20.804;2023-08-20T10:16:02;10.18;;;9.18;;
75289;SDS011;63883;48.996;20.804;2023-08-20T10:18:28;10.48;;;9.60;;
75289;SDS011;63883;48.996;20.804;2023-08-20T10:20:56;10.68;;;9.68;;
75289;SDS011;63883;48.996;20.804;2023-08-20T10:23:24;10.32;;;9.43;;
75289;SDS011;63883;48.996;20.804;2023-08-20T10:25:51;10.57;;;9.68;;
75289;SDS011;63883;48.996;20.804;2023-08-20T10:33:36;10.70;;;9.80;;
75289;SDS011;63883;48.996;20.804;2023-08-20T10:36:36;10.27;;;9.43;;
75289;SDS011;63883;48.996;20.804;2023-08-20T10:38:55;10.02;;;9.02;;
75289;SDS011;63883;48.996;20.804;2023-08-20T10:41:25;9.88;;;8.88;;
75289;SDS011;63883;48.996;20.804;2023-08-20T10:43:51;9.88;;;8.98;;
75289;SDS011;63883;48.996;20.804;2023-08-20T10:46:21;10.68;;;9.65;;
75289;SDS011;63883;48.996;20.804;2023-08-20T10:49:00;9.88;;;8.98;;
75289;SDS011;63883;48.996;20.804;2023-08-20T10:51:28;10.23;;;9.15;;
75289;SDS011;63883;48.996;20.804;2023-08-20T10:59:47;10.63;;;9.63;;
75289;SDS011;63883;48.996;20.804;2023-08-20T11:02:05;9.90;;;8.93;;
75289;SDS011;63883;48.996;20.804;2023-08-20T11:04:38;9.90;;;8.95;;
75289;SDS011;63883;48.996;20.804;2023-08-20T11:07:04;10.00;;;9.18;;
75289;SDS011;63883;48.996;20.804;2023-08-20T11:09:30;10.38;;;9.30;;
75289;SDS011;63883;48.996;20.804;2023-08-20T11:11:56;10.55;;;9.45;;
75289;SDS011;63883;48.996;20.804;2023-08-20T11:14:23;10.20;;;9.30;;
75289;SDS011;63883;48.996;20.804;2023-08-20T11:16:49;10.10;;;9.30;;
75289;SDS011;63883;48.996;20.804;2023-08-20T11:19:19;11.00;;;9.95;;
75289;SDS011;63883;48.996;20.804;2023-08-20T11:21:46;10.23;;;9.32;;
75289;SDS011;63883;48.996;20.804;2023-08-20T11:24:13;10.93;;;9.82;;
75289;SDS011;63883;48.996;20.804;2023-08-20T11:26:39;10.70;;;9.70;;
75289;SDS011;63883;48.996;20.804;2023-08-20T11:29:07;11.65;;;10.45;;
75289;SDS011;63883;48.996;20.804;2023-08-20T11:31:37;10.95;;;10.00;;
75289;SDS011;63883;48.996;20.804;2023-08-20T11:34:04;11.70;;;10.50;;
75289;SDS011;63883;48.996;20.804;2023-08-20T11:36:31;11.45;;;10.25;;
75289;SDS011;63883;48.996;20.804;2023-08-20T11:38:57;11.25;;;10.07;;
75289;SDS011;63883;48.996;20.804;2023-08-20T11:41:23;12.30;;;10.40;;
75289;SDS011;63883;48.996;20.804;2023-08-20T11:43:50;12.25;;;11.00;;
75289;SDS011;63883;48.996;20.804;2023-08-20T11:46:18;12.82;;;11.52;;
75289;SDS011;63883;48.996;20.804;2023-08-20T11:51:26;11.80;;;10.70;;
75289;SDS011;63883;48.996;20.804;2023-08-20T11:53:52;13.43;;;12.13;;
75289;SDS011;63883;48.996;20.804;2023-08-20T11:56:18;13.32;;;12.00;;
75289;SDS011;63883;48.996;20.804;2023-08-20T11:58:49;12.90;;;11.70;;
75289;SDS011;63883;48.996;20.804;2023-08-20T12:01:15;10.95;;;9.93;;
75289;SDS011;63883;48.996;20.804;2023-08-20T12:03:43;12.32;;;11.13;;
75289;SDS011;63883;48.996;20.804;2023-08-20T12:06:21;11.25;;;10.15;;
75289;SDS011;63883;48.996;20.804;2023-08-20T12:08:54;10.15;;;9.25;;
75289;SDS011;63883;48.996;20.804;2023-08-20T12:11:23;10.68;;;9.68;;
75289;SDS011;63883;48.996;20.804;2023-08-20T12:13:50;10.27;;;9.38;;
75289;SDS011;63883;48.996;20.804;2023-08-20T12:16:16;10.15;;;9.25;;
75289;SDS011;63883;48.996;20.804;2023-08-20T12:18:41;10.25;;;9.35;;
75289;SDS011;63883;48.996;20.804;2023-08-20T12:21:07;9.80;;;8.82;;
75289;SDS011;63883;48.996;20.804;2023-08-20T12:23:33;9.50;;;8.70;;
75289;SDS011;63883;48.996;20.804;2023-08-20T12:25:58;9.52;;;8.70;;
75289;SDS011;63883;48.996;20.804;2023-08-20T12:28:24;10.10;;;9.20;;
75289;SDS011;63883;48.996;20.804;2023-08-20T12:30:51;9.35;;;8.55;;
75289;SDS011;63883;48.996;20.804;2023-08-20T12:33:17;10.65;;;9.65;;
75289;SDS011;63883;48.996;20.804;2023-08-20T12:35:43;10.45;;;9.45;;
75289;SDS011;63883;48.996;20.804;2023-08-20T12:38:08;11.70;;;10.55;;
75289;SDS011;63883;48.996;20.804;2023-08-20T12:40:34;11.65;;;9.60;;
75289;SDS011;63883;48.996;20.804;2023-08-20T12:43:01;13.25;;;9.98;;
75289;SDS011;63883;48.996;20.804;2023-08-20T12:45:26;11.90;;;10.13;;
75289;SDS011;63883;48.996;20.804;2023-08-20T12:47:52;10.90;;;9.90;;
75289;SDS011;63883;48.996;20.804;2023-08-20T12:50:19;23.15;;;10.60;;
75289;SDS011;63883;48.996;20.804;2023-08-20T12:52:45;11.43;;;10.10;;
75289;SDS011;63883;48.996;20.804;2023-08-20T12:55:12;11.10;;;9.70;;
75289;SDS011;63883;48.996;20.804;2023-08-20T12:57:51;10.98;;;9.80;;
75289;SDS011;63883;48.996;20.804;2023-08-20T13:00:21;13.40;;;10.00;;
75289;SDS011;63883;48.996;20.804;2023-08-20T13:02:47;14.63;;;10.82;;
75289;SDS011;63883;48.996;20.804;2023-08-20T13:05:13;12.98;;;10.93;;
75289;SDS011;63883;48.996;20.804;2023-08-20T13:07:40;11.50;;;10.18;;
75289;SDS011;63883;48.996;20.804;2023-08-20T13:10:06;11.18;;;10.07;;
75289;SDS011;63883;48.996;20.804;2023-08-20T13:12:34;14.40;;;11.90;;
75289;SDS011;63883;48.996;20.804;2023-08-20T13:15:00;12.88;;;11.23;;
75289;SDS011;63883;48.996;20.804;2023-08-20T13:17:27;12.48;;;11.13;;
75289;SDS011;63883;48.996;20.804;2023-08-20T13:19:53;11.77;;;10.57;;
75289;SDS011;63883;48.996;20.804;2023-08-20T13:22:18;12.38;;;11.13;;
75289;SDS011;63883;48.996;20.804;2023-08-20T13:24:44;11.15;;;10.15;;
75289;SDS011;63883;48.996;20.804;2023-08-20T13:27:10;11.55;;;10.35;;
75289;SDS011;63883;48.996;20.804;2023-08-20T13:29:35;11.57;;;10.25;;
75289;SDS011;63883;48.996;20.804;2023-08-20T13:32:01;11.80;;;10.63;;
75289;SDS011;63883;48.996;20.804;2023-08-20T13:34:27;11.88;;;10.18;;
75289;SDS011;63883;48.996;20.804;2023-08-20T13:36:52;11.27;;;10.20;;
75289;SDS011;63883;48.996;20.804;2023-08-20T13:39:18;11.65;;;10.55;;
75289;SDS011;63883;48.996;20.804;2023-08-20T13:41:44;12.05;;;10.68;;
75289;SDS011;63883;48.996;20.804;2023-08-20T13:44:11;12.05;;;10.95;;
75289;SDS011;63883;48.996;20.804;2023-08-20T13:46:37;12.07;;;10.88;;
75289;SDS011;63883;48.996;20.804;2023-08-20T13:49:02;12.02;;;10.93;;
75289;SDS011;63883;48.996;20.804;2023-08-20T13:51:29;11.38;;;10.38;;
75289;SDS011;63883;48.996;20.804;2023-08-20T13:53:55;11.63;;;10.48;;
75289;SDS011;63883;48.996;20.804;2023-08-20T13:56:21;12.25;;;11.15;;
75289;SDS011;63883;48.996;20.804;2023-08-20T13:58:47;12.18;;;11.07;;
75289;SDS011;63883;48.996;20.804;2023-08-20T14:01:13;11.65;;;10.63;;
75289;SDS011;63883;48.996;20.804;2023-08-20T14:03:39;12.13;;;11.02;;
75289;SDS011;63883;48.996;20.804;2023-08-20T14:06:05;12.55;;;11.50;;
75289;SDS011;63883;48.996;20.804;2023-08-20T14:08:32;11.30;;;10.20;;
75289;SDS011;63883;48.996;20.804;2023-08-20T14:10:58;10.80;;;9.80;;
75289;SDS011;63883;48.996;20.804;2023-08-20T14:13:23;11.13;;;10.02;;
75289;SDS011;63883;48.996;20.804;2023-08-20T14:15:49;11.90;;;10.80;;
75289;SDS011;63883;48.996;20.804;2023-08-20T14:18:15;12.00;;;10.80;;
75289;SDS011;63883;48.996;20.804;2023-08-20T14:20:41;11.73;;;10.63;;
75289;SDS011;63883;48.996;20.804;2023-08-20T14:23:06;11.63;;;10.27;;
75289;SDS011;63883;48.996;20.804;2023-08-20T14:25:32;12.10;;;10.68;;
75289;SDS011;63883;48.996;20.804;2023-08-20T14:27:58;14.80;;;9.88;;
75289;SDS011;63883;48.996;20.804;2023-08-20T14:30:24;11.48;;;10.27;;
75289;SDS011;63883;48.996;20.804;2023-08-20T14:32:49;10.70;;;9.73;;
75289;SDS011;63883;48.996;20.804;2023-08-20T14:35:15;13.02;;;9.73;;
75289;SDS011;63883;48.996;20.804;2023-08-20T14:37:40;10.98;;;9.82;;
75289;SDS011;63883;48.996;20.804;2023-08-20T14:40:06;10.63;;;9.57;;
75289;SDS011;63883;48.996;20.804;2023-08-20T14:42:34;10.63;;;9.63;;
75289;SDS011;63883;48.996;20.804;2023-08-20T14:45:00;9.68;;;8.68;;
75289;SDS011;63883;48.996;20.804;2023-08-20T14:47:26;9.23;;;8.32;;